sensor_id;sensor_type;location;lat;lon;timestamp;pressure;altitude;pressure_sealevel;temperature;humidity
47082;BME280;33066;49.296;14.470;2023-07-29T00:00:35;96522.00;;;24.71;40.70
47082;BME280;33066;49.296;14.470;2023-07-29T00:03:01;96523.11;;;24.47;40.84
47082;BME280;33066;49.296;14.470;2023-07-29T00:05:27;96520.75;;;24.46;40.96
47082;BME280;33066;49.296;14.470;2023-07-29T00:07:53;96521.69;;;24.68;41.03
47082;BME280;33066;49.296;14.470;2023-07-29T00:10:19;96518.47;;;24.65;41.09
47082;BME280;33066;49.296;14.470;2023-07-29T00:12:45;96521.07;;;24.62;41.14
47082;BME280;33066;49.296;14.470;2023-07-29T00:15:11;96521.86;;;24.59;41.19
47082;BME280;33066;49.296;14.470;2023-07-29T00:17:36;96520.58;;;24.59;41.28
47082;BME280;33066;49.296;14.470;2023-07-29T00:20:02;96521.21;;;24.35;41.43
47082;BME280;33066;49.296;14.470;2023-07-29T00:22:28;96523.94;;;24.81;41.42
47082;BME280;33066;49.296;14.470;2023-07-29T00:24:54;96527.15;;;24.53;41.54
47082;BME280;33066;49.296;14.470;2023-07-29T00:27:19;96524.91;;;24.50;41.49
47082;BME280;33066;49.296;14.470;2023-07-29T00:29:45;96523.66;;;24.23;41.53
47082;BME280;33066;49.296;14.470;2023-07-29T00:32:11;96521.85;;;24.45;41.47
47082;BME280;33066;49.296;14.470;2023-07-29T00:34:37;96526.87;;;24.69;41.51
47082;BME280;33066;49.296;14.470;2023-07-29T00:37:03;96527.75;;;24.41;41.53
47082;BME280;33066;49.296;14.470;2023-07-29T00:39:29;96527.24;;;24.42;41.49
47082;BME280;33066;49.296;14.470;2023-07-29T00:41:54;96524.25;;;24.18;41.62
47082;BME280;33066;49.296;14.470;2023-07-29T00:44:20;96519.73;;;24.42;41.62
47082;BME280;33066;49.296;14.470;2023-07-29T00:46:46;96520.20;;;24.66;41.62
47082;BME280;33066;49.296;14.470;2023-07-29T00:49:11;96515.67;;;24.65;41.64
47082;BME280;33066;49.296;14.470;2023-07-29T00:51:37;96513.43;;;24.65;41.79
47082;BME280;33066;49.296;14.470;2023-07-29T00:54:03;96511.94;;;24.62;41.87
47082;BME280;33066;49.296;14.470;2023-07-29T00:56:29;96510.66;;;24.60;41.86
47082;BME280;33066;49.296;14.470;2023-07-29T00:58:55;96515.35;;;24.34;41.79
47082;BME280;33066;49.296;14.470;2023-07-29T01:01:20;96518.34;;;24.07;41.74
47082;BME280;33066;49.296;14.470;2023-07-29T01:03:46;96518.85;;;24.32;41.76
47082;BME280;33066;49.296;14.470;2023-07-29T01:06:16;96519.39;;;24.58;41.68
47082;BME280;33066;49.296;14.470;2023-07-29T01:08:44;96517.25;;;24.64;41.47
47082;BME280;33066;49.296;14.470;2023-07-29T01:11:11;96513.99;;;24.67;41.36
47082;BME280;33066;49.296;14.470;2023-07-29T01:13:35;96513.83;;;24.49;41.23
47082;BME280;33066;49.296;14.470;2023-07-29T01:16:00;96515.88;;;24.29;41.16
47082;BME280;33066;49.296;14.470;2023-07-29T01:18:23;96515.29;;;24.54;41.16
47082;BME280;33066;49.296;14.470;2023-07-29T01:20:47;96508.93;;;24.53;41.14
47082;BME280;33066;49.296;14.470;2023-07-29T01:23:13;96510.69;;;24.52;41.36
47082;BME280;33066;49.296;14.470;2023-07-29T01:25:39;96515.19;;;24.73;41.54
47082;BME280;33066;49.296;14.470;2023-07-29T01:28:05;96519.86;;;24.71;41.52
47082;BME280;33066;49.296;14.470;2023-07-29T01:30:33;96515.96;;;24.69;41.69
47082;BME280;33066;49.296;14.470;2023-07-29T01:33:01;96513.96;;;24.42;41.46
47082;BME280;33066;49.296;14.470;2023-07-29T01:35:24;96515.08;;;24.38;41.47
47082;BME280;33066;49.296;14.470;2023-07-29T01:37:51;96513.85;;;24.09;41.39
47082;BME280;33066;49.296;14.470;2023-07-29T01:40:13;96517.71;;;24.54;41.48
47082;BME280;33066;49.296;14.470;2023-07-29T01:42:39;96515.31;;;24.47;41.58
47082;BME280;33066;49.296;14.470;2023-07-29T01:45:06;96519.28;;;24.19;41.91
47082;BME280;33066;49.296;14.470;2023-07-29T01:47:31;96519.44;;;24.41;42.15
47082;BME280;33066;49.296;14.470;2023-07-29T01:49:57;96519.96;;;23.89;42.26
47082;BME280;33066;49.296;14.470;2023-07-29T01:52:22;96519.91;;;24.60;42.34
47082;BME280;33066;49.296;14.470;2023-07-29T01:54:48;96518.71;;;24.33;42.34
47082;BME280;33066;49.296;14.470;2023-07-29T01:57:14;96520.20;;;24.10;42.43
47082;BME280;33066;49.296;14.470;2023-07-29T01:59:40;96519.13;;;24.31;42.36
47082;BME280;33066;49.296;14.470;2023-07-29T02:02:06;96516.38;;;24.28;42.28
47082;BME280;33066;49.296;14.470;2023-07-29T02:04:32;96511.47;;;24.24;42.28
47082;BME280;33066;49.296;14.470;2023-07-29T02:06:57;96509.98;;;24.23;42.24
47082;BME280;33066;49.296;14.470;2023-07-29T02:09:23;96510.04;;;24.22;42.28
47082;BME280;33066;49.296;14.470;2023-07-29T02:11:49;96511.22;;;24.19;42.40
47082;BME280;33066;49.296;14.470;2023-07-29T02:14:14;96509.38;;;24.14;42.55
47082;BME280;33066;49.296;14.470;2023-07-29T02:16:40;96507.55;;;24.13;42.46
47082;BME280;33066;49.296;14.470;2023-07-29T02:19:06;96504.75;;;24.13;42.43
47082;BME280;33066;49.296;14.470;2023-07-29T02:21:32;96501.76;;;24.13;42.49
47082;BME280;33066;49.296;14.470;2023-07-29T02:23:58;96503.11;;;24.11;42.47
47082;BME280;33066;49.296;14.470;2023-07-29T02:26:24;96504.08;;;24.10;42.49
47082;BME280;33066;49.296;14.470;2023-07-29T02:28:50;96510.17;;;24.11;42.52
47082;BME280;33066;49.296;14.470;2023-07-29T02:31:17;96511.83;;;24.34;42.51
47082;BME280;33066;49.296;14.470;2023-07-29T02:33:41;96515.45;;;24.09;42.54
47082;BME280;33066;49.296;14.470;2023-07-29T02:36:07;96512.79;;;24.07;42.51
47082;BME280;33066;49.296;14.470;2023-07-29T02:38:33;96516.21;;;24.05;42.55
47082;BME280;33066;49.296;14.470;2023-07-29T02:40:58;96515.73;;;24.05;42.55
47082;BME280;33066;49.296;14.470;2023-07-29T02:43:24;96513.58;;;24.04;42.50
47082;BME280;33066;49.296;14.470;2023-07-29T02:45:50;96515.37;;;24.03;42.50
47082;BME280;33066;49.296;14.470;2023-07-29T02:48:16;96512.53;;;24.02;42.50
47082;BME280;33066;49.296;14.470;2023-07-29T02:50:42;96512.07;;;24.04;42.42
47082;BME280;33066;49.296;14.470;2023-07-29T02:53:07;96511.02;;;24.03;42.42
47082;BME280;33066;49.296;14.470;2023-07-29T02:55:33;96508.63;;;24.03;42.70
47082;BME280;33066;49.296;14.470;2023-07-29T02:57:59;96509.32;;;24.00;42.84
47082;BME280;33066;49.296;14.470;2023-07-29T03:00:25;96511.10;;;24.21;42.88
47082;BME280;33066;49.296;14.470;2023-07-29T03:02:51;96514.16;;;24.16;42.95
47082;BME280;33066;49.296;14.470;2023-07-29T03:05:17;96517.43;;;23.78;42.99
47082;BME280;33066;49.296;14.470;2023-07-29T03:07:42;96518.56;;;23.82;43.00
47082;BME280;33066;49.296;14.470;2023-07-29T03:13:00;96515.95;;;24.37;41.64
47082;BME280;33066;49.296;14.470;2023-07-29T03:15:25;96518.78;;;24.50;41.67
47082;BME280;33066;49.296;14.470;2023-07-29T03:17:50;96518.20;;;24.20;42.05
47082;BME280;33066;49.296;14.470;2023-07-29T03:20:16;96516.73;;;24.03;42.43
47082;BME280;33066;49.296;14.470;2023-07-29T03:22:42;96511.89;;;23.83;42.77
47082;BME280;33066;49.296;14.470;2023-07-29T03:25:08;96509.98;;;24.01;42.82
47082;BME280;33066;49.296;14.470;2023-07-29T03:27:33;96509.47;;;23.97;42.91
47082;BME280;33066;49.296;14.470;2023-07-29T03:29:59;96509.04;;;23.95;42.92
47082;BME280;33066;49.296;14.470;2023-07-29T03:32:25;96505.72;;;24.18;42.95
47082;BME280;33066;49.296;14.470;2023-07-29T03:34:51;96503.56;;;23.95;42.88
47082;BME280;33066;49.296;14.470;2023-07-29T03:37:17;96504.46;;;23.94;42.83
47082;BME280;33066;49.296;14.470;2023-07-29T03:39:43;96498.85;;;23.91;42.92
47082;BME280;33066;49.296;14.470;2023-07-29T03:42:08;96499.55;;;23.67;42.90
47082;BME280;33066;49.296;14.470;2023-07-29T03:44:34;96501.61;;;24.14;42.95
47082;BME280;33066;49.296;14.470;2023-07-29T03:47:00;96505.05;;;23.93;43.05
47082;BME280;33066;49.296;14.470;2023-07-29T03:49:26;96504.81;;;23.96;43.06
47082;BME280;33066;49.296;14.470;2023-07-29T03:51:51;96503.48;;;23.95;43.13
47082;BME280;33066;49.296;14.470;2023-07-29T03:54:16;96506.48;;;23.97;43.19
47082;BME280;33066;49.296;14.470;2023-07-29T03:56:42;96511.06;;;23.96;43.28
47082;BME280;33066;49.296;14.470;2023-07-29T03:59:07;96513.76;;;23.91;43.76
47082;BME280;33066;49.296;14.470;2023-07-29T04:01:33;96513.52;;;23.85;43.94
47082;BME280;33066;49.296;14.470;2023-07-29T04:03:59;96516.57;;;23.25;44.15
47082;BME280;33066;49.296;14.470;2023-07-29T04:06:25;96517.39;;;23.47;44.60
47082;BME280;33066;49.296;14.470;2023-07-29T04:08:50;96516.76;;;23.53;44.98
47082;BME280;33066;49.296;14.470;2023-07-29T04:11:16;96512.18;;;23.30;44.95
47082;BME280;33066;49.296;14.470;2023-07-29T04:13:41;96513.09;;;23.44;44.68
47082;BME280;33066;49.296;14.470;2023-07-29T04:16:07;96516.45;;;23.39;44.74
47082;BME280;33066;49.296;14.470;2023-07-29T04:18:33;96520.24;;;23.36;44.84
47082;BME280;33066;49.296;14.470;2023-07-29T04:20:58;96522.69;;;23.08;44.97
47082;BME280;33066;49.296;14.470;2023-07-29T04:23:24;96525.26;;;23.24;45.09
47082;BME280;33066;49.296;14.470;2023-07-29T04:25:50;96522.46;;;23.51;45.06
47082;BME280;33066;49.296;14.470;2023-07-29T04:28:16;96522.33;;;23.35;44.97
47082;BME280;33066;49.296;14.470;2023-07-29T04:30:42;96522.48;;;23.39;44.95
47082;BME280;33066;49.296;14.470;2023-07-29T04:33:08;96528.97;;;23.61;44.61
47082;BME280;33066;49.296;14.470;2023-07-29T04:35:34;96531.44;;;23.74;44.37
47082;BME280;33066;49.296;14.470;2023-07-29T04:37:59;96535.95;;;23.68;44.43
47082;BME280;33066;49.296;14.470;2023-07-29T04:40:25;96543.00;;;23.37;44.56
47082;BME280;33066;49.296;14.470;2023-07-29T04:42:51;96544.93;;;23.64;44.55
47082;BME280;33066;49.296;14.470;2023-07-29T04:45:16;96549.12;;;23.37;44.66
47082;BME280;33066;49.296;14.470;2023-07-29T04:50:08;96549.89;;;23.50;44.87
47082;BME280;33066;49.296;14.470;2023-07-29T04:52:32;96557.33;;;23.21;45.37
47082;BME280;33066;49.296;14.470;2023-07-29T04:54:57;96553.69;;;23.19;45.45
47082;BME280;33066;49.296;14.470;2023-07-29T04:57:22;96557.74;;;22.91;45.54
47082;BME280;33066;49.296;14.470;2023-07-29T04:59:47;96558.91;;;23.24;45.44
47082;BME280;33066;49.296;14.470;2023-07-29T05:02:12;96560.28;;;22.93;45.66
47082;BME280;33066;49.296;14.470;2023-07-29T05:04:37;96559.61;;;22.94;46.09
47082;BME280;33066;49.296;14.470;2023-07-29T05:07:02;96555.69;;;22.67;46.15
47082;BME280;33066;49.296;14.470;2023-07-29T05:09:27;96553.56;;;21.96;46.15
47082;BME280;33066;49.296;14.470;2023-07-29T05:11:52;96550.63;;;23.11;45.79
47082;BME280;33066;49.296;14.470;2023-07-29T05:14:18;96552.15;;;22.84;46.35
47082;BME280;33066;49.296;14.470;2023-07-29T05:16:43;96550.68;;;22.88;46.27
47082;BME280;33066;49.296;14.470;2023-07-29T05:19:08;96549.58;;;23.03;46.21
47082;BME280;33066;49.296;14.470;2023-07-29T05:21:33;96548.14;;;22.91;45.65
47082;BME280;33066;49.296;14.470;2023-07-29T05:23:57;96543.33;;;23.42;45.42
47082;BME280;33066;49.296;14.470;2023-07-29T05:26:24;96543.44;;;23.57;45.14
47082;BME280;33066;49.296;14.470;2023-07-29T05:28:47;96542.81;;;23.82;44.71
47082;BME280;33066;49.296;14.470;2023-07-29T05:31:12;96543.11;;;24.07;44.41
47082;BME280;33066;49.296;14.470;2023-07-29T05:33:38;96545.91;;;23.99;44.11
47082;BME280;33066;49.296;14.470;2023-07-29T05:36:05;96544.18;;;23.73;43.79
47082;BME280;33066;49.296;14.470;2023-07-29T05:38:30;96544.65;;;23.93;43.88
47082;BME280;33066;49.296;14.470;2023-07-29T05:40:56;96546.13;;;23.87;43.92
47082;BME280;33066;49.296;14.470;2023-07-29T05:43:23;96550.02;;;23.94;44.06
47082;BME280;33066;49.296;14.470;2023-07-29T05:45:48;96552.82;;;23.50;44.35
47082;BME280;33066;49.296;14.470;2023-07-29T05:48:14;96550.58;;;23.91;44.68
47082;BME280;33066;49.296;14.470;2023-07-29T05:50:39;96547.54;;;23.59;44.48
47082;BME280;33066;49.296;14.470;2023-07-29T05:53:04;96544.17;;;23.49;44.67
47082;BME280;33066;49.296;14.470;2023-07-29T05:55:29;96541.29;;;23.77;44.60
47082;BME280;33066;49.296;14.470;2023-07-29T05:57:55;96539.95;;;23.56;44.56
47082;BME280;33066;49.296;14.470;2023-07-29T06:00:21;96536.31;;;23.57;44.72
47082;BME280;33066;49.296;14.470;2023-07-29T06:02:47;96533.88;;;23.66;44.49
47082;BME280;33066;49.296;14.470;2023-07-29T06:05:13;96530.80;;;23.59;44.71
47082;BME280;33066;49.296;14.470;2023-07-29T06:07:39;96527.15;;;23.61;44.69
47082;BME280;33066;49.296;14.470;2023-07-29T06:10:05;96525.15;;;23.61;44.46
47082;BME280;33066;49.296;14.470;2023-07-29T06:12:30;96525.55;;;23.70;44.28
47082;BME280;33066;49.296;14.470;2023-07-29T06:14:56;96528.45;;;23.80;44.34
47082;BME280;33066;49.296;14.470;2023-07-29T06:17:21;96527.69;;;23.83;44.34
47082;BME280;33066;49.296;14.470;2023-07-29T06:19:47;96525.11;;;24.08;43.98
47082;BME280;33066;49.296;14.470;2023-07-29T06:22:13;96524.25;;;24.11;43.57
47082;BME280;33066;49.296;14.470;2023-07-29T06:24:39;96522.80;;;24.18;43.23
47082;BME280;33066;49.296;14.470;2023-07-29T06:27:05;96523.63;;;24.07;42.99
47082;BME280;33066;49.296;14.470;2023-07-29T06:29:31;96522.93;;;24.11;42.77
47082;BME280;33066;49.296;14.470;2023-07-29T06:31:58;96524.27;;;24.59;42.58
47082;BME280;33066;49.296;14.470;2023-07-29T06:34:22;96525.74;;;24.54;42.40
47082;BME280;33066;49.296;14.470;2023-07-29T06:36:48;96527.19;;;24.28;41.53
47082;BME280;33066;49.296;14.470;2023-07-29T06:39:14;96524.23;;;24.04;41.35
47082;BME280;33066;49.296;14.470;2023-07-29T06:41:40;96523.18;;;23.91;41.94
47082;BME280;33066;49.296;14.470;2023-07-29T06:44:06;96523.53;;;23.90;41.50
47082;BME280;33066;49.296;14.470;2023-07-29T06:46:32;96529.00;;;24.00;41.51
47082;BME280;33066;49.296;14.470;2023-07-29T06:48:57;96534.82;;;23.89;41.68
47082;BME280;33066;49.296;14.470;2023-07-29T06:51:23;96535.57;;;23.86;42.03
47082;BME280;33066;49.296;14.470;2023-07-29T06:53:49;96539.54;;;24.22;41.74
47082;BME280;33066;49.296;14.470;2023-07-29T06:56:15;96541.94;;;24.53;41.70
47082;BME280;33066;49.296;14.470;2023-07-29T06:58:41;96542.46;;;24.88;41.39
47082;BME280;33066;49.296;14.470;2023-07-29T07:01:07;96531.51;;;24.88;41.39
47082;BME280;33066;49.296;14.470;2023-07-29T07:03:32;96524.96;;;24.79;40.81
47082;BME280;33066;49.296;14.470;2023-07-29T07:05:59;96531.90;;;24.99;40.75
47082;BME280;33066;49.296;14.470;2023-07-29T07:08:24;96533.69;;;24.95;40.81
47082;BME280;33066;49.296;14.470;2023-07-29T07:10:50;96527.12;;;24.86;40.87
47082;BME280;33066;49.296;14.470;2023-07-29T07:13:16;96517.84;;;24.91;40.76
47082;BME280;33066;49.296;14.470;2023-07-29T07:15:41;96512.38;;;25.27;40.83
47082;BME280;33066;49.296;14.470;2023-07-29T07:18:07;96514.33;;;25.36;40.41
47082;BME280;33066;49.296;14.470;2023-07-29T07:20:34;96513.92;;;25.12;39.98
47082;BME280;33066;49.296;14.470;2023-07-29T07:22:59;96514.68;;;25.27;40.30
47082;BME280;33066;49.296;14.470;2023-07-29T07:25:25;96508.91;;;25.41;40.36
47082;BME280;33066;49.296;14.470;2023-07-29T07:27:51;96500.52;;;25.52;39.44
47082;BME280;33066;49.296;14.470;2023-07-29T07:30:17;96496.14;;;25.83;39.26
47082;BME280;33066;49.296;14.470;2023-07-29T07:32:42;96496.30;;;25.69;39.34
47082;BME280;33066;49.296;14.470;2023-07-29T07:35:08;96486.88;;;25.56;39.51
47082;BME280;33066;49.296;14.470;2023-07-29T07:37:33;96481.72;;;25.97;39.23
47082;BME280;33066;49.296;14.470;2023-07-29T07:39:59;96483.56;;;26.11;38.44
47082;BME280;33066;49.296;14.470;2023-07-29T07:42:25;96491.70;;;25.58;37.54
47082;BME280;33066;49.296;14.470;2023-07-29T07:44:51;96489.06;;;25.46;37.57
47082;BME280;33066;49.296;14.470;2023-07-29T07:47:17;96483.38;;;25.61;37.12
47082;BME280;33066;49.296;14.470;2023-07-29T07:49:43;96485.10;;;25.51;37.72
47082;BME280;33066;49.296;14.470;2023-07-29T07:52:08;96489.12;;;25.28;38.33
47082;BME280;33066;49.296;14.470;2023-07-29T07:54:34;96493.41;;;25.80;38.60
47082;BME280;33066;49.296;14.470;2023-07-29T07:57:00;96487.33;;;25.79;38.46
47082;BME280;33066;49.296;14.470;2023-07-29T07:59:26;96470.12;;;25.67;38.62
47082;BME280;33066;49.296;14.470;2023-07-29T08:01:52;96460.08;;;25.72;38.65
47082;BME280;33066;49.296;14.470;2023-07-29T08:04:17;96459.23;;;26.24;38.22
47082;BME280;33066;49.296;14.470;2023-07-29T08:06:43;96452.73;;;26.30;37.76
47082;BME280;33066;49.296;14.470;2023-07-29T08:09:09;96451.47;;;26.22;36.62
47082;BME280;33066;49.296;14.470;2023-07-29T08:11:35;96447.51;;;26.37;36.57
47082;BME280;33066;49.296;14.470;2023-07-29T08:14:01;96448.01;;;26.41;36.64
47082;BME280;33066;49.296;14.470;2023-07-29T08:16:27;96450.18;;;26.49;36.61
47082;BME280;33066;49.296;14.470;2023-07-29T08:18:52;96446.63;;;26.28;36.33
47082;BME280;33066;49.296;14.470;2023-07-29T08:21:18;96445.06;;;26.64;36.35
47082;BME280;33066;49.296;14.470;2023-07-29T08:23:44;96439.47;;;26.58;36.16
47082;BME280;33066;49.296;14.470;2023-07-29T08:26:09;96438.16;;;26.86;36.28
47082;BME280;33066;49.296;14.470;2023-07-29T08:28:37;96449.82;;;26.85;36.26
47082;BME280;33066;49.296;14.470;2023-07-29T08:31:01;96455.27;;;26.29;36.32
47082;BME280;33066;49.296;14.470;2023-07-29T08:33:27;96460.50;;;26.19;36.28
47082;BME280;33066;49.296;14.470;2023-07-29T08:35:53;96455.53;;;25.91;36.86
47082;BME280;33066;49.296;14.470;2023-07-29T08:38:18;96448.41;;;25.79;36.30
47082;BME280;33066;49.296;14.470;2023-07-29T08:40:53;96448.27;;;26.54;36.36
47082;BME280;33066;49.296;14.470;2023-07-29T08:43:12;96438.49;;;26.60;36.24
47082;BME280;33066;49.296;14.470;2023-07-29T08:45:36;96441.47;;;26.92;36.03
47082;BME280;33066;49.296;14.470;2023-07-29T08:48:02;96438.61;;;27.04;35.59
47082;BME280;33066;49.296;14.470;2023-07-29T08:50:27;96443.02;;;26.93;34.94
47082;BME280;33066;49.296;14.470;2023-07-29T08:52:53;96438.57;;;27.43;34.79
47082;BME280;33066;49.296;14.470;2023-07-29T08:55:18;96432.30;;;27.38;34.13
47082;BME280;33066;49.296;14.470;2023-07-29T08:57:45;96435.64;;;27.29;34.15
47082;BME280;33066;49.296;14.470;2023-07-29T09:00:11;96441.10;;;26.93;34.18
47082;BME280;33066;49.296;14.470;2023-07-29T09:02:36;96438.82;;;27.09;34.36
47082;BME280;33066;49.296;14.470;2023-07-29T09:05:02;96441.50;;;26.88;33.68
47082;BME280;33066;49.296;14.470;2023-07-29T09:07:29;96448.15;;;27.17;34.12
47082;BME280;33066;49.296;14.470;2023-07-29T09:09:53;96451.35;;;27.21;34.07
47082;BME280;33066;49.296;14.470;2023-07-29T09:12:19;96446.20;;;27.01;33.83
47082;BME280;33066;49.296;14.470;2023-07-29T09:14:44;96444.46;;;26.89;33.87
47082;BME280;33066;49.296;14.470;2023-07-29T09:17:10;96451.97;;;27.29;34.28
47082;BME280;33066;49.296;14.470;2023-07-29T09:19:36;96447.18;;;27.11;34.04
47082;BME280;33066;49.296;14.470;2023-07-29T09:22:02;96441.02;;;27.58;33.81
47082;BME280;33066;49.296;14.470;2023-07-29T09:24:28;96443.00;;;27.87;33.80
47082;BME280;33066;49.296;14.470;2023-07-29T09:26:54;96449.97;;;27.76;33.08
47082;BME280;33066;49.296;14.470;2023-07-29T09:29:22;96448.72;;;27.83;33.37
47082;BME280;33066;49.296;14.470;2023-07-29T09:31:45;96454.55;;;27.77;32.83
47082;BME280;33066;49.296;14.470;2023-07-29T09:34:15;96452.18;;;27.27;33.58
47082;BME280;33066;49.296;14.470;2023-07-29T09:36:36;96443.45;;;27.18;33.66
47082;BME280;33066;49.296;14.470;2023-07-29T09:39:02;96441.25;;;27.62;33.72
47082;BME280;33066;49.296;14.470;2023-07-29T09:41:29;96440.68;;;27.69;33.27
47082;BME280;33066;49.296;14.470;2023-07-29T09:43:56;96435.77;;;27.86;33.04
47082;BME280;33066;49.296;14.470;2023-07-29T09:46:23;96429.86;;;28.18;33.29
47082;BME280;33066;49.296;14.470;2023-07-29T09:48:45;96429.79;;;28.45;32.84
47082;BME280;33066;49.296;14.470;2023-07-29T09:51:11;96429.48;;;28.65;32.40
47082;BME280;33066;49.296;14.470;2023-07-29T09:53:40;96430.49;;;28.16;32.43
47082;BME280;33066;49.296;14.470;2023-07-29T09:56:03;96434.96;;;28.58;32.24
47082;BME280;33066;49.296;14.470;2023-07-29T09:58:28;96428.65;;;28.34;31.83
47082;BME280;33066;49.296;14.470;2023-07-29T10:00:54;96429.13;;;28.11;32.57
47082;BME280;33066;49.296;14.470;2023-07-29T10:03:21;96434.81;;;28.36;32.94
47082;BME280;33066;49.296;14.470;2023-07-29T10:05:45;96435.97;;;28.50;32.67
47082;BME280;33066;49.296;14.470;2023-07-29T10:08:12;96429.70;;;28.74;32.29
47082;BME280;33066;49.296;14.470;2023-07-29T10:10:37;96426.54;;;28.11;32.22
47082;BME280;33066;49.296;14.470;2023-07-29T10:13:03;96424.27;;;28.30;32.20
47082;BME280;33066;49.296;14.470;2023-07-29T10:15:29;96417.81;;;28.82;31.70
47082;BME280;33066;49.296;14.470;2023-07-29T10:17:54;96409.60;;;28.86;32.30
47082;BME280;33066;49.296;14.470;2023-07-29T10:20:20;96403.92;;;28.93;31.11
47082;BME280;33066;49.296;14.470;2023-07-29T10:22:47;96403.91;;;28.59;31.60
47082;BME280;33066;49.296;14.470;2023-07-29T10:25:16;96406.66;;;28.71;32.01
47082;BME280;33066;49.296;14.470;2023-07-29T10:27:43;96406.57;;;28.45;31.68
47082;BME280;33066;49.296;14.470;2023-07-29T10:30:03;96407.76;;;28.09;32.21
47082;BME280;33066;49.296;14.470;2023-07-29T10:32:30;96406.20;;;28.12;32.64
47082;BME280;33066;49.296;14.470;2023-07-29T10:34:54;96403.00;;;27.94;33.01
47082;BME280;33066;49.296;14.470;2023-07-29T10:37:21;96403.57;;;27.82;33.21
47082;BME280;33066;49.296;14.470;2023-07-29T10:39:52;96410.78;;;27.47;33.28
47082;BME280;33066;49.296;14.470;2023-07-29T10:42:11;96416.85;;;27.41;33.42
47082;BME280;33066;49.296;14.470;2023-07-29T10:44:48;96420.44;;;27.72;33.53
47082;BME280;33066;49.296;14.470;2023-07-29T10:47:10;96423.51;;;27.59;33.38
47082;BME280;33066;49.296;14.470;2023-07-29T10:49:29;96419.91;;;27.50;33.53
47082;BME280;33066;49.296;14.470;2023-07-29T10:51:54;96445.63;;;27.10;35.05
47082;BME280;33066;49.296;14.470;2023-07-29T10:54:20;96453.69;;;26.15;37.67
47082;BME280;33066;49.296;14.470;2023-07-29T10:56:48;96449.95;;;25.46;41.45
47082;BME280;33066;49.296;14.470;2023-07-29T11:01:39;96574.48;;;23.12;54.11
47082;BME280;33066;49.296;14.470;2023-07-29T11:06:29;96579.49;;;22.01;54.23
47082;BME280;33066;49.296;14.470;2023-07-29T11:08:54;96577.42;;;21.96;54.51
47082;BME280;33066;49.296;14.470;2023-07-29T11:11:19;96562.25;;;21.87;51.45
47082;BME280;33066;49.296;14.470;2023-07-29T11:13:44;96550.50;;;22.00;53.80
47082;BME280;33066;49.296;14.470;2023-07-29T11:16:10;96545.82;;;22.23;52.03
47082;BME280;33066;49.296;14.470;2023-07-29T11:18:35;96547.99;;;22.58;49.91
47082;BME280;33066;49.296;14.470;2023-07-29T11:21:01;96539.15;;;22.39;49.77
47082;BME280;33066;49.296;14.470;2023-07-29T11:23:30;96528.44;;;22.48;49.15
47082;BME280;33066;49.296;14.470;2023-07-29T11:25:50;96515.76;;;22.84;49.74
47082;BME280;33066;49.296;14.470;2023-07-29T11:28:15;96517.73;;;23.24;49.97
47082;BME280;33066;49.296;14.470;2023-07-29T11:30:41;96528.55;;;22.98;48.35
47082;BME280;33066;49.296;14.470;2023-07-29T11:33:07;96531.47;;;23.49;48.25
47082;BME280;33066;49.296;14.470;2023-07-29T11:35:33;96542.53;;;23.61;45.82
47082;BME280;33066;49.296;14.470;2023-07-29T11:37:58;96522.41;;;23.54;45.65
47082;BME280;33066;49.296;14.470;2023-07-29T11:40:24;96499.95;;;23.98;45.79
47082;BME280;33066;49.296;14.470;2023-07-29T11:42:52;96507.21;;;24.25;46.27
47082;BME280;33066;49.296;14.470;2023-07-29T11:45:16;96501.78;;;24.54;46.26
47082;BME280;33066;49.296;14.470;2023-07-29T11:47:42;96502.00;;;24.80;46.47
47082;BME280;33066;49.296;14.470;2023-07-29T11:50:09;96498.67;;;25.01;45.62
47082;BME280;33066;49.296;14.470;2023-07-29T11:52:34;96492.03;;;25.19;44.62
47082;BME280;33066;49.296;14.470;2023-07-29T11:55:00;96493.66;;;25.16;44.24
47082;BME280;33066;49.296;14.470;2023-07-29T11:57:25;96488.00;;;25.12;45.01
47082;BME280;33066;49.296;14.470;2023-07-29T11:59:51;96485.42;;;25.37;44.93
47082;BME280;33066;49.296;14.470;2023-07-29T12:02:17;96482.20;;;25.45;44.44
47082;BME280;33066;49.296;14.470;2023-07-29T12:04:44;96498.28;;;25.45;41.01
47082;BME280;33066;49.296;14.470;2023-07-29T12:07:08;96497.47;;;25.93;41.10
47082;BME280;33066;49.296;14.470;2023-07-29T12:09:34;96492.99;;;26.50;42.50
47082;BME280;33066;49.296;14.470;2023-07-29T12:12:00;96488.33;;;27.20;41.86
47082;BME280;33066;49.296;14.470;2023-07-29T12:14:26;96494.09;;;27.05;40.64
47082;BME280;33066;49.296;14.470;2023-07-29T12:16:51;96497.47;;;27.52;40.25
47082;BME280;33066;49.296;14.470;2023-07-29T12:19:17;96495.43;;;27.67;39.10
47082;BME280;33066;49.296;14.470;2023-07-29T12:21:43;96495.84;;;27.25;39.25
47082;BME280;33066;49.296;14.470;2023-07-29T12:24:09;96493.69;;;27.06;39.17
47082;BME280;33066;49.296;14.470;2023-07-29T12:26:36;96493.52;;;26.86;39.21
47082;BME280;33066;49.296;14.470;2023-07-29T12:31:31;96497.73;;;26.83;38.52
47082;BME280;33066;49.296;14.470;2023-07-29T12:33:56;96499.80;;;26.73;39.22
47082;BME280;33066;49.296;14.470;2023-07-29T12:36:17;96491.80;;;27.41;39.47
47082;BME280;33066;49.296;14.470;2023-07-29T12:38:44;96478.62;;;27.74;39.53
47082;BME280;33066;49.296;14.470;2023-07-29T12:41:09;96478.40;;;27.56;39.22
47082;BME280;33066;49.296;14.470;2023-07-29T12:43:35;96473.49;;;28.38;38.31
47082;BME280;33066;49.296;14.470;2023-07-29T12:46:00;96477.06;;;28.45;38.00
47082;BME280;33066;49.296;14.470;2023-07-29T12:48:26;96466.93;;;28.37;37.81
47082;BME280;33066;49.296;14.470;2023-07-29T12:50:52;96466.67;;;28.24;37.06
47082;BME280;33066;49.296;14.470;2023-07-29T12:53:18;96459.99;;;28.38;38.01